LRTR/TSR METAR and TAF weather

Enter ICAO airport designator
Station Type Date Time Source
LRTR METAR 2019/08/25 20:30 UTC NOAA

LRTR 252030Z 30008KT 9000 TSRA FEW016 BKN055CB 24/18 Q1019 RESHRA R11/290095


Station Type Date Time Source
LRTR Decoded METAR 2019/08/25 20:30 UTC NOAA

Station name not available
Aug 25, 2019 - 04:30 PM EDT / 2019.08.25 2030 UTC
Wind: from the WNW (300 degrees) at 9 MPH (8 KT):0
Visibility: 5 mile(s):0
Sky conditions: mostly cloudy
Weather: rain with thunder; Cumulonimbus clouds observed
Temperature: 75 F (24 C)
Dew Point: 64 F (18 C)
Relative Humidity: 69%
Pressure (altimeter): 30.09 in. Hg (1019 hPa)
ob: LRTR 252030Z 30008KT 9000 TSRA FEW016 BKN055CB 24/18 Q1019 RESHRA R11/290095
cycle: 20

Station Type Date Time Source
LRTR TAF 2019/08/25 20:20 UTC NOAA

TAF
AMD LRTR 252012Z 2520/2618 19008KT 5000 -TSRA SCT040CB PROB40
TEMPO 2520/2524 VRB20G30KT 1500 +TSRA BKN035CB
BECMG 2601/2603 9999 NSW SCT045
TEMPO 2614/2618 SCT040CB

Example: see airport list